createdAt,value
2018-12-20T00:00:47.138Z,2.00
2018-12-20T00:03:16.273Z,2.00
2018-12-20T00:05:45.314Z,2.00
2018-12-20T00:08:14.487Z,2.00
2018-12-20T00:10:43.584Z,2.00
2018-12-20T00:13:12.815Z,2.00
2018-12-20T00:15:41.978Z,2.00
2018-12-20T00:18:11.245Z,2.10
2018-12-20T00:20:40.412Z,2.10
2018-12-20T00:23:09.790Z,2.00
2018-12-20T00:25:38.976Z,2.00
2018-12-20T00:28:08.176Z,2.00
2018-12-20T00:30:37.456Z,2.00
2018-12-20T00:33:06.605Z,1.90
2018-12-20T00:35:35.818Z,2.00
2018-12-20T00:38:05.051Z,2.00
2018-12-20T00:40:34.212Z,2.00
2018-12-20T00:43:03.452Z,2.00
2018-12-20T00:45:32.744Z,2.00
2018-12-20T00:48:01.866Z,2.10
2018-12-20T00:50:31.213Z,2.10
2018-12-20T00:53:00.429Z,2.10
2018-12-20T00:55:29.633Z,2.20
2018-12-20T00:57:58.770Z,2.20
2018-12-20T01:00:28.115Z,2.20
2018-12-20T01:02:57.287Z,2.30
2018-12-20T01:05:26.624Z,2.40
2018-12-20T01:07:55.662Z,2.50
2018-12-20T01:10:24.871Z,2.60
2018-12-20T01:12:53.967Z,2.60
2018-12-20T01:15:23.190Z,2.70
2018-12-20T01:17:52.318Z,2.70
2018-12-20T01:20:21.590Z,2.70
2018-12-20T01:22:50.788Z,2.80
2018-12-20T01:25:20.049Z,2.80
2018-12-20T01:27:49.283Z,2.80
2018-12-20T01:30:18.529Z,2.80
2018-12-20T01:32:47.791Z,2.80
2018-12-20T01:35:17.017Z,2.80
2018-12-20T01:37:46.399Z,2.80
2018-12-20T01:40:15.575Z,2.80
2018-12-20T01:42:44.814Z,2.80
2018-12-20T01:45:14.162Z,2.90
2018-12-20T01:47:43.370Z,2.90
2018-12-20T01:50:12.483Z,2.90
2018-12-20T01:52:41.592Z,2.80
2018-12-20T01:55:10.746Z,2.90
2018-12-20T01:57:40.211Z,2.90
2018-12-20T02:00:11.065Z,2.90
2018-12-20T02:02:40.309Z,2.80
2018-12-20T02:05:09.571Z,2.90
2018-12-20T02:07:39.542Z,2.90
2018-12-20T02:10:08.916Z,2.90
2018-12-20T02:12:38.043Z,2.90
2018-12-20T02:15:07.546Z,2.90
2018-12-20T02:17:36.709Z,2.90
2018-12-20T02:20:06.170Z,3.00
2018-12-20T02:22:35.568Z,3.00
2018-12-20T02:25:04.982Z,3.10
2018-12-20T02:27:34.136Z,3.10
2018-12-20T02:30:03.384Z,3.10
2018-12-20T02:32:32.553Z,3.10
2018-12-20T02:35:02.068Z,3.10
2018-12-20T02:37:31.570Z,3.20
2018-12-20T02:40:00.866Z,3.20
2018-12-20T02:42:30.382Z,3.30
2018-12-20T02:45:00.283Z,3.30
2018-12-20T02:47:30.544Z,3.30
2018-12-20T02:49:59.816Z,3.40
2018-12-20T02:52:29.199Z,3.50
2018-12-20T02:54:58.306Z,3.40
2018-12-20T02:57:27.451Z,3.40
2018-12-20T02:59:56.665Z,3.40
2018-12-20T03:02:25.860Z,3.40
2018-12-20T03:04:55.180Z,3.40
2018-12-20T03:07:24.388Z,3.40
2018-12-20T03:09:53.672Z,3.40
2018-12-20T03:12:22.770Z,3.40
2018-12-20T03:14:51.911Z,3.50
2018-12-20T03:17:21.092Z,3.40
2018-12-20T03:19:50.252Z,3.50
2018-12-20T03:22:19.731Z,3.50
2018-12-20T03:24:49.128Z,3.60
2018-12-20T03:27:18.556Z,3.60
2018-12-20T03:29:48.000Z,3.60
2018-12-20T03:32:17.171Z,3.60
2018-12-20T03:34:46.334Z,3.50
2018-12-20T03:37:15.542Z,3.60
2018-12-20T03:39:45.120Z,3.60
2018-12-20T03:42:14.484Z,3.60
2018-12-20T03:44:43.632Z,3.60
2018-12-20T03:47:12.744Z,3.60
2018-12-20T03:49:42.042Z,3.60
2018-12-20T03:52:11.268Z,3.70
2018-12-20T03:54:40.570Z,3.70
2018-12-20T03:57:09.765Z,3.70
2018-12-20T03:59:38.877Z,3.70
2018-12-20T04:02:08.015Z,3.70
2018-12-20T04:04:37.200Z,3.70
2018-12-20T04:07:06.609Z,3.70
2018-12-20T04:09:35.804Z,3.70
2018-12-20T04:12:05.027Z,3.60
2018-12-20T04:14:34.070Z,3.70
2018-12-20T04:17:03.336Z,3.70
2018-12-20T04:19:32.428Z,3.70
2018-12-20T04:22:01.934Z,3.70
2018-12-20T04:24:31.311Z,3.70
2018-12-20T04:27:00.724Z,3.70
2018-12-20T04:29:29.801Z,3.70
2018-12-20T04:31:59.217Z,3.70
2018-12-20T04:34:28.647Z,3.70
2018-12-20T04:36:57.943Z,3.80
2018-12-20T04:39:27.202Z,3.80
2018-12-20T04:41:56.502Z,3.80
2018-12-20T04:44:25.824Z,3.70
2018-12-20T04:46:55.064Z,3.80
2018-12-20T04:49:24.431Z,3.70
2018-12-20T04:51:53.746Z,3.80
2018-12-20T04:54:23.029Z,3.80
2018-12-20T04:56:52.300Z,3.90
2018-12-20T04:59:21.660Z,3.90
2018-12-20T05:01:50.922Z,3.90
2018-12-20T05:04:20.095Z,3.90
2018-12-20T05:06:49.352Z,3.90
2018-12-20T05:09:18.637Z,3.90
2018-12-20T05:11:48.264Z,4.00
2018-12-20T05:14:17.518Z,3.90
2018-12-20T05:16:46.690Z,3.90
2018-12-20T05:19:15.899Z,3.90
2018-12-20T05:21:45.113Z,3.90
2018-12-20T05:24:14.279Z,4.00
2018-12-20T05:26:43.348Z,4.00
2018-12-20T05:29:12.496Z,4.00
2018-12-20T05:31:41.737Z,4.00
2018-12-20T05:34:10.955Z,4.00
2018-12-20T05:36:40.096Z,4.00
2018-12-20T05:39:09.334Z,4.00
2018-12-20T05:41:38.677Z,4.00
2018-12-20T05:44:08.214Z,4.10
2018-12-20T05:46:37.446Z,4.10
2018-12-20T05:49:06.650Z,4.00
2018-12-20T05:51:36.038Z,4.10
2018-12-20T05:54:05.249Z,4.10
2018-12-20T05:56:34.355Z,4.10
2018-12-20T05:59:03.399Z,4.10
2018-12-20T06:01:32.622Z,4.20
2018-12-20T06:04:01.839Z,4.20
2018-12-20T06:06:30.820Z,4.20
2018-12-20T06:09:00.040Z,4.30
2018-12-20T06:11:29.078Z,4.20
2018-12-20T06:13:58.911Z,4.20
2018-12-20T06:16:27.993Z,4.20
2018-12-20T06:18:57.097Z,4.20
2018-12-20T06:21:26.280Z,4.20
2018-12-20T06:23:55.462Z,4.10
2018-12-20T06:26:24.657Z,4.10
2018-12-20T06:28:53.868Z,4.00
2018-12-20T06:31:23.082Z,4.00
2018-12-20T06:33:52.312Z,3.90
2018-12-20T06:36:21.501Z,4.00
2018-12-20T06:38:50.727Z,3.90
2018-12-20T06:41:19.917Z,3.90
2018-12-20T06:43:48.995Z,3.80
2018-12-20T06:46:21.357Z,3.80
2018-12-20T06:48:49.351Z,3.60
2018-12-20T06:51:18.443Z,3.80
2018-12-20T06:53:47.511Z,3.80
2018-12-20T06:56:16.705Z,3.70
2018-12-20T06:58:45.811Z,3.60
2018-12-20T07:01:14.934Z,3.60
2018-12-20T07:03:44.121Z,3.60
2018-12-20T07:06:13.365Z,3.70
2018-12-20T07:08:42.542Z,3.80
2018-12-20T07:11:11.698Z,3.80
2018-12-20T07:13:40.937Z,3.80
2018-12-20T07:16:10.088Z,3.80
2018-12-20T07:18:39.195Z,3.80
2018-12-20T07:21:08.652Z,3.70
2018-12-20T07:23:37.749Z,3.70
2018-12-20T07:26:07.762Z,3.70
2018-12-20T07:28:37.050Z,3.60
2018-12-20T07:31:06.262Z,3.60
2018-12-20T07:33:35.529Z,3.50
2018-12-20T07:36:04.708Z,3.50
2018-12-20T07:38:33.923Z,3.50
2018-12-20T07:41:03.680Z,3.40
2018-12-20T07:43:32.861Z,3.40
2018-12-20T07:46:01.958Z,3.30
2018-12-20T07:48:32.247Z,3.30
2018-12-20T07:51:03.654Z,3.20
2018-12-20T07:53:33.093Z,3.30
2018-12-20T07:56:02.348Z,3.20
2018-12-20T07:58:31.528Z,3.20
2018-12-20T08:01:00.699Z,3.20
2018-12-20T08:03:29.806Z,3.30
2018-12-20T08:05:58.984Z,3.50
2018-12-20T08:08:28.274Z,3.50
2018-12-20T08:10:57.395Z,3.60
2018-12-20T08:13:26.457Z,3.70
2018-12-20T08:15:55.626Z,3.70
2018-12-20T08:18:24.960Z,3.90
2018-12-20T08:20:54.056Z,4.00
2018-12-20T08:23:23.242Z,4.10
2018-12-20T08:25:52.398Z,4.10
2018-12-20T08:28:21.536Z,4.20
2018-12-20T08:30:50.679Z,4.20
2018-12-20T08:33:19.767Z,4.30
2018-12-20T08:35:48.928Z,4.50
2018-12-20T08:38:18.086Z,4.60
2018-12-20T08:40:47.228Z,4.80
2018-12-20T08:43:16.294Z,4.90
2018-12-20T08:45:45.598Z,5.00
2018-12-20T08:48:14.646Z,5.20
2018-12-20T08:50:43.796Z,5.30
2018-12-20T08:53:12.876Z,5.50
2018-12-20T08:55:42.071Z,5.70
2018-12-20T08:58:11.288Z,5.80
2018-12-20T09:00:40.468Z,6.00
2018-12-20T09:03:09.516Z,6.10
2018-12-20T09:05:38.690Z,6.20
2018-12-20T09:08:07.780Z,6.20
2018-12-20T09:10:36.911Z,6.20
2018-12-20T09:13:09.590Z,6.20
2018-12-20T09:15:37.326Z,6.20
2018-12-20T09:18:06.448Z,6.20
2018-12-20T09:20:35.570Z,6.10
2018-12-20T09:23:05.654Z,6.10
2018-12-20T09:25:34.746Z,6.20
2018-12-20T09:28:03.894Z,6.10
2018-12-20T09:30:33.098Z,6.10
2018-12-20T09:33:02.284Z,6.20
2018-12-20T09:35:31.362Z,6.40
2018-12-20T09:38:01.119Z,6.50
2018-12-20T09:40:30.333Z,6.60
2018-12-20T09:42:59.460Z,6.50
2018-12-20T09:45:28.583Z,6.50
2018-12-20T09:48:02.882Z,6.40
2018-12-20T09:50:32.023Z,6.40
2018-12-20T09:53:01.331Z,6.30
2018-12-20T09:55:30.406Z,6.20
2018-12-20T09:57:59.482Z,6.30
2018-12-20T10:00:28.611Z,6.30
2018-12-20T10:02:57.688Z,6.20
2018-12-20T10:05:26.798Z,6.20
2018-12-20T10:07:55.882Z,6.20
2018-12-20T10:10:24.990Z,6.20
2018-12-20T10:12:54.146Z,6.30
2018-12-20T10:15:23.176Z,6.30
2018-12-20T10:17:52.300Z,6.20
2018-12-20T10:20:21.364Z,6.30
2018-12-20T10:22:50.523Z,6.30
2018-12-20T10:25:19.631Z,6.40
2018-12-20T10:27:48.727Z,6.30
2018-12-20T10:30:18.640Z,6.30
2018-12-20T10:32:47.816Z,6.30
2018-12-20T10:35:16.896Z,6.40
2018-12-20T10:37:48.721Z,6.40
2018-12-20T10:40:17.963Z,6.50
2018-12-20T10:42:47.073Z,6.50
2018-12-20T10:45:16.235Z,6.50
2018-12-20T10:47:45.363Z,6.60
2018-12-20T10:50:14.478Z,6.60
2018-12-20T10:52:43.617Z,6.60
2018-12-20T10:55:12.859Z,6.50
2018-12-20T10:57:42.050Z,6.60
2018-12-20T11:00:11.384Z,6.60
2018-12-20T11:02:45.739Z,6.60
2018-12-20T11:05:19.953Z,6.70
2018-12-20T11:07:54.377Z,6.80
2018-12-20T11:10:26.952Z,6.80
2018-12-20T11:12:56.913Z,6.90
2018-12-20T11:15:26.110Z,6.90
2018-12-20T11:17:55.220Z,6.90
2018-12-20T11:20:24.325Z,7.10
2018-12-20T11:22:53.430Z,7.10
2018-12-20T11:25:22.590Z,7.10
2018-12-20T11:27:51.682Z,7.20
2018-12-20T11:30:20.848Z,7.20
2018-12-20T11:32:49.941Z,7.10
2018-12-20T11:35:19.051Z,7.10
2018-12-20T11:37:48.180Z,7.10
2018-12-20T11:40:17.461Z,7.10
2018-12-20T11:42:46.542Z,7.10
2018-12-20T11:45:15.672Z,7.10
2018-12-20T11:47:46.101Z,7.10
2018-12-20T11:50:15.706Z,7.20
2018-12-20T11:52:44.873Z,7.20
2018-12-20T11:55:13.996Z,7.30
2018-12-20T11:57:43.110Z,7.40
2018-12-20T12:00:12.293Z,7.60
2018-12-20T12:02:41.455Z,7.70
2018-12-20T12:05:10.605Z,7.70
2018-12-20T12:07:39.710Z,7.80
2018-12-20T12:10:09.568Z,7.80
2018-12-20T12:12:38.653Z,7.90
2018-12-20T12:15:08.457Z,7.90
2018-12-20T12:17:37.526Z,7.80
2018-12-20T12:20:08.010Z,7.70
2018-12-20T12:22:37.129Z,7.60
2018-12-20T12:25:07.431Z,7.50
2018-12-20T12:27:36.644Z,7.50
2018-12-20T12:30:06.948Z,7.60
2018-12-20T12:32:36.098Z,7.60
2018-12-20T12:35:05.550Z,7.60
2018-12-20T12:37:35.107Z,7.60
2018-12-20T12:40:05.049Z,7.60
2018-12-20T12:42:34.200Z,7.70
2018-12-20T12:45:03.501Z,7.70
2018-12-20T12:47:37.747Z,7.80
2018-12-20T12:50:07.034Z,7.80
2018-12-20T12:52:36.297Z,7.80
2018-12-20T12:55:06.491Z,7.70
2018-12-20T12:57:37.790Z,7.60
2018-12-20T13:00:08.586Z,7.50
2018-12-20T13:02:37.834Z,7.40
2018-12-20T13:05:07.202Z,7.40
2018-12-20T13:07:39.194Z,7.40
2018-12-20T13:10:09.118Z,7.40
2018-12-20T13:12:38.402Z,7.40
2018-12-20T13:15:08.890Z,7.50
2018-12-20T13:17:38.227Z,7.60
2018-12-20T13:20:08.575Z,7.70
2018-12-20T13:22:37.767Z,7.80
2018-12-20T13:25:07.839Z,7.80
2018-12-20T13:27:38.089Z,7.70
2018-12-20T13:30:10.429Z,7.60
2018-12-20T13:32:39.618Z,7.50
2018-12-20T13:35:08.684Z,7.50
2018-12-20T13:37:37.909Z,7.40
2018-12-20T13:40:07.224Z,7.40
2018-12-20T13:42:36.398Z,7.50
2018-12-20T13:45:06.059Z,7.50
2018-12-20T13:47:35.261Z,7.40
2018-12-20T13:50:04.592Z,7.50
2018-12-20T13:52:33.879Z,7.50
2018-12-20T13:55:03.013Z,7.50
2018-12-20T13:57:32.131Z,7.50
2018-12-20T14:00:01.218Z,7.40
2018-12-20T14:02:30.387Z,7.40
2018-12-20T14:05:00.111Z,7.40
2018-12-20T14:07:29.311Z,7.30
2018-12-20T14:09:58.441Z,7.30
2018-12-20T14:12:27.522Z,7.40
2018-12-20T14:14:56.699Z,7.40
2018-12-20T14:17:25.900Z,7.40
2018-12-20T14:19:55.050Z,7.40
2018-12-20T14:22:24.127Z,7.40
2018-12-20T14:24:53.269Z,7.40
2018-12-20T14:27:22.321Z,7.40
2018-12-20T14:29:51.465Z,7.40
2018-12-20T14:32:20.562Z,7.40
2018-12-20T14:34:49.774Z,7.40
2018-12-20T14:37:18.942Z,7.40
2018-12-20T14:39:48.019Z,7.30
2018-12-20T14:42:17.174Z,7.30
2018-12-20T14:44:46.323Z,7.20
2018-12-20T14:47:15.420Z,7.10
2018-12-20T14:49:44.559Z,7.10
2018-12-20T14:52:13.681Z,7.10
2018-12-20T14:54:43.003Z,7.00
2018-12-20T14:57:12.269Z,7.00
2018-12-20T14:59:41.420Z,7.00
2018-12-20T15:02:10.551Z,6.90
2018-12-20T15:04:39.761Z,6.80
2018-12-20T15:07:08.912Z,6.80
2018-12-20T15:09:38.071Z,6.80
2018-12-20T15:12:07.182Z,6.70
2018-12-20T15:14:36.353Z,6.70
2018-12-20T15:17:05.654Z,6.70
2018-12-20T15:19:34.886Z,6.70
2018-12-20T15:22:04.093Z,6.50
2018-12-20T15:24:33.293Z,6.50
2018-12-20T15:27:02.442Z,6.50
2018-12-20T15:29:31.537Z,6.40
2018-12-20T15:32:00.770Z,6.30
2018-12-20T15:34:29.891Z,6.30
2018-12-20T15:36:59.030Z,6.30
2018-12-20T15:39:28.114Z,6.30
2018-12-20T15:41:57.256Z,6.30
2018-12-20T15:44:26.410Z,6.10
2018-12-20T15:46:55.578Z,6.20
2018-12-20T15:49:24.677Z,6.30
2018-12-20T15:51:53.907Z,6.40
2018-12-20T15:54:23.122Z,6.40
2018-12-20T15:56:52.219Z,6.40
2018-12-20T15:59:21.319Z,6.40
2018-12-20T16:01:50.490Z,6.40
2018-12-20T16:04:20.141Z,6.30
2018-12-20T16:06:49.302Z,6.30
2018-12-20T16:09:18.450Z,6.30
2018-12-20T16:11:47.671Z,6.30
2018-12-20T16:14:16.821Z,6.20
2018-12-20T16:16:46.090Z,6.20
2018-12-20T16:19:15.271Z,6.20
2018-12-20T16:21:44.646Z,6.10
2018-12-20T16:24:14.255Z,6.10
2018-12-20T16:26:43.476Z,6.10
2018-12-20T16:29:12.554Z,6.00
2018-12-20T16:31:41.718Z,5.90
2018-12-20T16:34:10.822Z,5.80
2018-12-20T16:36:40.020Z,5.70
2018-12-20T16:39:09.176Z,5.60
2018-12-20T16:41:39.071Z,5.50
2018-12-20T16:44:08.246Z,5.60
2018-12-20T16:46:37.466Z,5.60
2018-12-20T16:49:13.601Z,5.60
2018-12-20T16:51:37.951Z,5.60
2018-12-20T16:54:07.083Z,5.60
2018-12-20T16:56:36.233Z,5.60
2018-12-20T16:59:05.511Z,5.50
2018-12-20T17:01:34.689Z,5.50
2018-12-20T17:04:03.821Z,5.50
2018-12-20T17:06:32.907Z,5.50
2018-12-20T17:09:02.214Z,5.50
2018-12-20T17:11:31.355Z,5.60
2018-12-20T17:14:00.531Z,5.70
2018-12-20T17:16:29.649Z,5.70
2018-12-20T17:18:58.850Z,5.60
2018-12-20T17:21:28.016Z,5.70
2018-12-20T17:23:57.201Z,5.60
2018-12-20T17:26:26.249Z,5.60
2018-12-20T17:28:55.542Z,5.50
2018-12-20T17:31:24.671Z,5.50
2018-12-20T17:33:54.562Z,5.50
2018-12-20T17:36:23.681Z,5.60
2018-12-20T17:38:52.817Z,5.60
2018-12-20T17:41:21.958Z,5.60
2018-12-20T17:43:51.134Z,5.60
2018-12-20T17:46:20.293Z,5.60
2018-12-20T17:48:49.523Z,5.50
2018-12-20T17:51:19.310Z,5.60
2018-12-20T17:53:48.633Z,5.50
2018-12-20T17:56:17.843Z,5.50
2018-12-20T17:58:47.161Z,5.50
2018-12-20T18:01:16.351Z,5.50
2018-12-20T18:03:45.806Z,5.50
2018-12-20T18:06:14.955Z,5.50
2018-12-20T18:08:44.194Z,5.50
2018-12-20T18:11:13.316Z,5.50
2018-12-20T18:13:42.495Z,5.40
2018-12-20T18:16:11.784Z,5.40
2018-12-20T18:18:40.993Z,5.40
2018-12-20T18:21:10.147Z,5.50
2018-12-20T18:23:39.409Z,5.50
2018-12-20T18:26:08.666Z,5.60
2018-12-20T18:28:37.837Z,5.70
2018-12-20T18:31:06.995Z,5.90
2018-12-20T18:33:36.206Z,6.00
2018-12-20T18:36:05.326Z,6.10
2018-12-20T18:38:34.557Z,6.10
2018-12-20T18:41:03.683Z,6.20
2018-12-20T18:43:33.429Z,6.20
2018-12-20T18:46:02.957Z,6.20
2018-12-20T18:48:32.435Z,6.40
2018-12-20T18:51:01.868Z,6.40
2018-12-20T18:53:31.246Z,6.30
2018-12-20T18:56:00.920Z,6.30
2018-12-20T18:58:30.358Z,6.30
2018-12-20T19:00:59.729Z,6.30
2018-12-20T19:03:29.160Z,6.30
2018-12-20T19:05:58.465Z,6.30
2018-12-20T19:08:27.908Z,6.40
2018-12-20T19:10:57.353Z,6.40
2018-12-20T19:13:26.988Z,6.60
2018-12-20T19:15:56.549Z,6.70
2018-12-20T19:18:26.039Z,6.80
2018-12-20T19:20:55.821Z,6.70
2018-12-20T19:23:25.439Z,6.60
2018-12-20T19:25:55.480Z,6.50
2018-12-20T19:28:25.480Z,6.50
2018-12-20T19:30:54.931Z,6.50
2018-12-20T19:33:24.605Z,6.40
2018-12-20T19:35:53.858Z,6.40
2018-12-20T19:38:23.443Z,6.40
2018-12-20T19:40:53.201Z,6.40
2018-12-20T19:43:22.831Z,6.30
2018-12-20T19:45:53.391Z,6.40
2018-12-20T19:48:23.135Z,6.40
2018-12-20T19:50:52.727Z,6.40
2018-12-20T19:53:22.423Z,6.40
2018-12-20T19:55:52.041Z,6.40
2018-12-20T19:58:22.110Z,6.30
2018-12-20T20:00:52.359Z,6.30
2018-12-20T20:03:22.765Z,6.40
2018-12-20T20:05:52.339Z,6.30
2018-12-20T20:08:21.784Z,6.30
2018-12-20T20:10:51.474Z,6.30
2018-12-20T20:13:30.747Z,6.20
2018-12-20T20:15:55.484Z,6.20
2018-12-20T20:18:25.298Z,6.20
2018-12-20T20:20:55.124Z,6.30
2018-12-20T20:23:25.603Z,6.30
2018-12-20T20:25:55.334Z,6.30
2018-12-20T20:28:25.010Z,6.30
2018-12-20T20:30:54.483Z,6.30
2018-12-20T20:33:23.927Z,6.30
2018-12-20T20:35:54.313Z,6.30
2018-12-20T20:38:25.560Z,6.20
2018-12-20T20:40:55.053Z,6.20
2018-12-20T20:43:24.603Z,6.20
2018-12-20T20:45:53.977Z,6.20
2018-12-20T20:48:24.670Z,6.30
2018-12-20T20:50:53.833Z,6.20
2018-12-20T20:53:24.220Z,6.20
2018-12-20T20:55:53.300Z,6.10
2018-12-20T20:58:24.530Z,6.00
2018-12-20T21:00:53.702Z,6.00
2018-12-20T21:03:22.842Z,5.90
2018-12-20T21:05:52.001Z,5.90
2018-12-20T21:08:21.194Z,5.80
2018-12-20T21:10:50.358Z,5.70
2018-12-20T21:13:19.556Z,5.60
2018-12-20T21:15:49.111Z,5.50
2018-12-20T21:18:18.338Z,5.50
2018-12-20T21:20:47.434Z,5.50
2018-12-20T21:23:16.853Z,5.40
2018-12-20T21:25:46.615Z,5.40
2018-12-20T21:28:16.393Z,5.40
2018-12-20T21:30:46.090Z,5.40
2018-12-20T21:33:17.401Z,5.40
2018-12-20T21:35:46.848Z,5.40
2018-12-20T21:38:16.298Z,5.30
2018-12-20T21:40:45.762Z,5.20
2018-12-20T21:43:15.417Z,5.20
2018-12-20T21:45:44.893Z,5.20
2018-12-20T21:48:14.580Z,5.10
2018-12-20T21:50:44.442Z,5.10
2018-12-20T21:53:13.938Z,5.00
2018-12-20T21:55:43.642Z,5.10
2018-12-20T21:58:13.016Z,5.20
2018-12-20T22:00:42.638Z,5.30
2018-12-20T22:03:12.589Z,5.30
2018-12-20T22:05:41.978Z,5.30
2018-12-20T22:08:11.378Z,5.30
2018-12-20T22:10:41.062Z,5.40
2018-12-20T22:13:10.518Z,5.40
2018-12-20T22:15:40.567Z,5.50
2018-12-20T22:18:09.996Z,5.50
2018-12-20T22:20:47.292Z,5.50
2018-12-20T22:23:12.134Z,5.50
2018-12-20T22:25:41.647Z,5.50
2018-12-20T22:28:11.269Z,5.60
2018-12-20T22:30:40.974Z,5.60
2018-12-20T22:33:10.558Z,5.70
2018-12-20T22:35:40.383Z,5.60
2018-12-20T22:38:10.250Z,5.60
2018-12-20T22:40:40.059Z,5.70
2018-12-20T22:43:09.502Z,5.70
2018-12-20T22:45:39.111Z,5.70
2018-12-20T22:48:08.428Z,5.70
2018-12-20T22:50:37.494Z,5.80
2018-12-20T22:53:07.261Z,5.70
2018-12-20T22:55:36.510Z,5.70
2018-12-20T22:58:06.348Z,5.70
2018-12-20T23:00:35.584Z,5.70
2018-12-20T23:03:05.456Z,5.60
2018-12-20T23:05:34.626Z,5.60
2018-12-20T23:08:04.670Z,5.50
2018-12-20T23:10:33.845Z,5.40
2018-12-20T23:13:05.737Z,5.30
2018-12-20T23:15:34.940Z,5.30
2018-12-20T23:18:04.378Z,5.30
2018-12-20T23:20:33.555Z,5.20
2018-12-20T23:23:03.411Z,5.00
2018-12-20T23:25:32.629Z,5.00
2018-12-20T23:28:01.795Z,4.90
2018-12-20T23:30:30.956Z,4.90
2018-12-20T23:33:00.007Z,4.80
2018-12-20T23:35:29.145Z,4.80
2018-12-20T23:37:58.335Z,4.70
2018-12-20T23:40:27.401Z,4.70
2018-12-20T23:42:57.432Z,4.70
2018-12-20T23:45:26.497Z,4.60
2018-12-20T23:47:55.698Z,4.70
2018-12-20T23:50:24.820Z,4.80
2018-12-20T23:52:53.917Z,4.80
2018-12-20T23:55:23.055Z,4.80
2018-12-20T23:57:52.263Z,4.80
